Time;durP1;ratioP1;P1;durP2;ratioP2;P2;SDS_P1;SDS_P2;PMS_P1;PMS_P2;Temp;Humidity;BMP_temperature;BMP_pressure;BME280_temperature;BME280_humidity;BME280_pressure;Samples;Min_cycle;Max_cycle;Signal;HPM_P1;HPM_P2
2022/01/13 00:01:25;;;;;;;3.22;2.30;;;;;;;;;;5093484;28;20050;-50
2022/01/13 00:03:51;;;;;;;2.67;2.10;;;;;;;;;;5092574;28;20031;-45
2022/01/13 00:06:17;;;;;;;4.65;2.20;;;;;;;;;;5093929;28;20380;-45
2022/01/13 00:08:43;;;;;;;3.42;2.70;;;;;;;;;;5093814;28;20024;-50
2022/01/13 00:11:09;;;;;;;3.05;2.20;;;;;;;;;;5093128;28;20028;-47
2022/01/13 00:13:47;;;;;;;2.22;2.00;;;;;;;;;;5093975;28;20024;-46
2022/01/13 00:16:39;;;;;;;3.92;2.80;;;;;;;;;;5093740;28;20027;-45
2022/01/13 00:21:42;;;;;;;3.85;2.33;;;;;;;;;;5093569;28;20024;-45
2022/01/13 00:24:13;;;;;;;2.85;2.10;;;;;;;;;;5092827;28;20441;-46
2022/01/13 00:26:39;;;;;;;2.55;2.15;;;;;;;;;;5093773;28;20028;-45
2022/01/13 00:29:06;;;;;;;2.97;2.05;;;;;;;;;;5092812;28;20404;-45
2022/01/13 00:31:35;;;;;;;3.53;2.65;;;;;;;;;;5089267;28;20035;-49
2022/01/13 00:34:02;;;;;;;3.90;3.03;;;;;;;;;;5090858;28;20020;-49
2022/01/13 00:36:30;;;;;;;3.10;2.20;;;;;;;;;;5092481;28;20028;-45
2022/01/13 00:38:56;;;;;;;4.38;2.40;;;;;;;;;;5072675;28;20053;-46
2022/01/13 00:41:26;;;;;;;4.30;2.55;;;;;;;;;;5072738;28;20492;-45
2022/01/13 00:43:52;;;;;;;4.45;2.30;;;;;;;;;;5072343;28;20055;-48
2022/01/13 00:46:23;;;;;;;3.13;2.58;;;;;;;;;;5072743;28;20064;-46
2022/01/13 00:48:51;;;;;;;2.75;2.28;;;;;;;;;;5072696;28;20017;-54
2022/01/13 00:51:17;;;;;;;3.78;2.15;;;;;;;;;;5072781;28;20033;-45
2022/01/13 00:53:43;;;;;;;4.32;3.42;;;;;;;;;;5072522;28;20039;-46
2022/01/13 00:56:10;;;;;;;4.53;2.97;;;;;;;;;;5071831;28;20603;-49
2022/01/13 00:58:36;;;;;;;4.25;2.83;;;;;;;;;;5072602;28;20028;-49
2022/01/13 01:01:03;;;;;;;2.92;2.28;;;;;;;;;;5072894;28;20365;-46
2022/01/13 01:03:29;;;;;;;3.92;2.85;;;;;;;;;;5072556;28;20026;-47
2022/01/13 01:05:55;;;;;;;3.95;2.53;;;;;;;;;;5071872;28;20366;-47
2022/01/13 01:08:22;;;;;;;4.03;3.05;;;;;;;;;;5072319;28;20366;-45
2022/01/13 01:10:50;;;;;;;3.53;3.05;;;;;;;;;;5072245;28;20043;-55
2022/01/13 01:13:21;;;;;;;4.47;2.50;;;;;;;;;;5072384;28;20024;-47
2022/01/13 01:15:51;;;;;;;3.67;2.28;;;;;;;;;;5072496;28;20023;-47
2022/01/13 01:18:32;;;;;;;2.88;2.50;;;;;;;;;;5072018;28;20025;-46
2022/01/13 01:21:19;;;;;;;5.88;2.97;;;;;;;;;;5071240;28;20492;-46
2022/01/13 01:31:34;;;;;;;3.03;2.58;;;;;;;;;;5071511;28;20474;-45
2022/01/13 01:36:38;;;;;;;3.92;2.65;;;;;;;;;;5071697;28;20032;-47
2022/01/13 01:39:06;;;;;;;3.55;2.80;;;;;;;;;;5070849;28;20441;-49
2022/01/13 01:41:35;;;;;;;4.10;2.50;;;;;;;;;;5071969;28;20437;-47
2022/01/13 01:44:11;;;;;;;3.97;3.10;;;;;;;;;;5071281;28;20035;-48
2022/01/13 01:46:39;;;;;;;3.90;3.03;;;;;;;;;;5071734;28;20044;-49
2022/01/13 01:49:15;;;;;;;3.15;2.65;;;;;;;;;;5071234;28;20112;-49
2022/01/13 01:51:41;;;;;;;3.55;3.25;;;;;;;;;;5072474;28;20064;-45
2022/01/13 01:54:07;;;;;;;3.40;2.60;;;;;;;;;;5071122;28;20031;-49
2022/01/13 01:56:33;;;;;;;3.80;2.47;;;;;;;;;;5071911;28;20365;-48
2022/01/13 01:59:02;;;;;;;3.95;3.25;;;;;;;;;;5071218;28;20029;-45
2022/01/13 02:01:29;;;;;;;3.53;2.85;;;;;;;;;;5072487;28;20013;-45
2022/01/13 02:03:55;;;;;;;3.72;2.78;;;;;;;;;;5070533;28;20027;-48
2022/01/13 02:06:22;;;;;;;4.55;2.95;;;;;;;;;;5071748;28;20102;-45
2022/01/13 02:08:48;;;;;;;3.70;3.15;;;;;;;;;;5071772;28;20142;-47
2022/01/13 02:11:14;;;;;;;3.47;2.63;;;;;;;;;;5070611;28;20021;-47
2022/01/13 02:13:47;;;;;;;3.55;2.95;;;;;;;;;;5071777;28;20111;-48
2022/01/13 02:16:37;;;;;;;4.63;3.50;;;;;;;;;;5071323;28;20031;-47
2022/01/13 02:19:00;;;;;;;4.30;3.17;;;;;;;;;;5065731;28;20040;-48
2022/01/13 02:21:26;;;;;;;3.83;2.88;;;;;;;;;;5070805;28;20025;-47
2022/01/13 02:23:53;;;;;;;3.53;2.63;;;;;;;;;;5062417;28;20068;-54
2022/01/13 02:26:19;;;;;;;5.07;3.28;;;;;;;;;;5052923;28;20033;-46
2022/01/13 02:28:46;;;;;;;4.30;2.90;;;;;;;;;;5055408;28;20032;-45
2022/01/13 02:31:13;;;;;;;3.30;2.88;;;;;;;;;;5054825;28;20025;-45
2022/01/13 02:33:39;;;;;;;4.63;3.30;;;;;;;;;;5056188;28;20021;-45
2022/01/13 02:36:06;;;;;;;4.63;3.65;;;;;;;;;;5074154;28;20029;-46
2022/01/13 02:38:32;;;;;;;3.03;2.67;;;;;;;;;;5075486;28;20057;-47
2022/01/13 02:40:59;;;;;;;3.53;2.78;;;;;;;;;;5074501;28;20115;-45
2022/01/13 02:43:26;;;;;;;3.97;2.70;;;;;;;;;;5075311;28;20035;-47
2022/01/13 02:48:32;;;;;;;5.70;3.28;;;;;;;;;;5075012;28;20029;-47
2022/01/13 02:50:58;;;;;;;5.82;3.03;;;;;;;;;;5074450;28;20111;-47
2022/01/13 02:53:24;;;;;;;4.07;3.17;;;;;;;;;;5075106;28;20108;-45
2022/01/13 02:55:51;;;;;;;4.68;3.33;;;;;;;;;;5075092;28;20104;-47
2022/01/13 02:58:17;;;;;;;4.07;3.15;;;;;;;;;;5073500;28;20466;-45
2022/01/13 03:00:44;;;;;;;3.30;2.70;;;;;;;;;;5074853;28;20021;-47
2022/01/13 03:03:10;;;;;;;4.97;3.50;;;;;;;;;;5074171;28;20401;-49
2022/01/13 03:05:39;;;;;;;3.78;2.50;;;;;;;;;;5073913;28;20015;-45
2022/01/13 03:08:08;;;;;;;4.43;2.88;;;;;;;;;;5074155;28;20441;-44
2022/01/13 03:10:35;;;;;;;5.28;3.25;;;;;;;;;;5074587;28;20029;-49
2022/01/13 03:13:02;;;;;;;3.95;3.20;;;;;;;;;;5069801;28;20032;-46
2022/01/13 03:15:28;;;;;;;3.38;2.95;;;;;;;;;;5073463;28;20545;-47
2022/01/13 03:17:54;;;;;;;4.63;3.13;;;;;;;;;;5073217;28;20073;-54
2022/01/13 03:20:20;;;;;;;3.90;2.78;;;;;;;;;;5074463;28;20067;-47
2022/01/13 03:22:46;;;;;;;3.95;3.00;;;;;;;;;;5074148;28;20030;-46
2022/01/13 03:25:14;;;;;;;5.45;3.38;;;;;;;;;;5055094;28;20213;-48
2022/01/13 03:27:41;;;;;;;3.42;2.72;;;;;;;;;;5054347;28;20025;-45
2022/01/13 03:30:08;;;;;;;4.53;3.33;;;;;;;;;;5053715;28;20356;-44
2022/01/13 03:32:35;;;;;;;3.50;3.00;;;;;;;;;;5054156;28;20052;-48
2022/01/13 03:35:01;;;;;;;3.67;2.50;;;;;;;;;;5056255;28;20039;-44
2022/01/13 03:37:29;;;;;;;4.25;3.28;;;;;;;;;;5072043;28;20041;-46
2022/01/13 03:39:55;;;;;;;4.50;3.20;;;;;;;;;;5073882;28;20373;-54
2022/01/13 03:42:21;;;;;;;4.25;3.10;;;;;;;;;;5056062;28;20028;-47
2022/01/13 03:44:47;;;;;;;4.22;2.70;;;;;;;;;;5074340;28;20017;-47
2022/01/13 03:47:14;;;;;;;3.90;2.83;;;;;;;;;;5073424;28;20032;-45
2022/01/13 03:49:41;;;;;;;4.65;2.88;;;;;;;;;;5074156;28;20424;-46
2022/01/13 03:52:13;;;;;;;4.53;3.30;;;;;;;;;;5073493;28;20052;-45
2022/01/13 03:54:40;;;;;;;3.75;2.67;;;;;;;;;;5074032;28;20029;-46
2022/01/13 03:57:25;;;;;;;4.32;3.15;;;;;;;;;;5068925;28;20032;-45
2022/01/13 04:00:14;;;;;;;4.43;3.38;;;;;;;;;;5062107;28;20029;-47
2022/01/13 04:02:40;;;;;;;4.85;3.40;;;;;;;;;;5028668;28;20541;-45
2022/01/13 04:05:06;;;;;;;4.57;3.20;;;;;;;;;;5060792;28;20021;-48
2022/01/13 04:07:32;;;;;;;3.28;2.83;;;;;;;;;;5056917;28;20390;-45
2022/01/13 04:09:58;;;;;;;5.35;3.65;;;;;;;;;;5059649;28;20025;-45
2022/01/13 04:12:26;;;;;;;3.42;2.63;;;;;;;;;;5062258;28;20021;-46
2022/01/13 04:15:00;;;;;;;4.35;2.72;;;;;;;;;;5061732;28;20568;-54
2022/01/13 04:17:27;;;;;;;3.55;2.97;;;;;;;;;;5061291;28;20024;-46
2022/01/13 04:19:53;;;;;;;4.20;3.17;;;;;;;;;;5062126;28;20082;-54
2022/01/13 04:22:19;;;;;;;3.90;3.00;;;;;;;;;;5062345;28;20025;-45
2022/01/13 04:24:47;;;;;;;4.30;3.22;;;;;;;;;;5061786;28;20020;-46
2022/01/13 04:27:22;;;;;;;3.90;2.60;;;;;;;;;;5061288;28;20021;-49
2022/01/13 04:29:59;;;;;;;4.90;2.83;;;;;;;;;;5061154;28;20474;-45
2022/01/13 04:32:25;;;;;;;4.22;3.13;;;;;;;;;;5067148;28;20032;-46
2022/01/13 04:34:51;;;;;;;5.03;3.47;;;;;;;;;;5073440;28;20050;-45
2022/01/13 04:37:17;;;;;;;3.33;3.03;;;;;;;;;;5072596;28;20052;-45
2022/01/13 04:39:43;;;;;;;4.07;2.75;;;;;;;;;;5073084;28;20457;-44
2022/01/13 04:42:12;;;;;;;4.38;2.95;;;;;;;;;;5072359;28;20116;-45
2022/01/13 04:44:38;;;;;;;4.40;3.17;;;;;;;;;;5073043;28;20024;-46
2022/01/13 04:47:07;;;;;;;3.70;2.58;;;;;;;;;;5072357;28;20028;-45
2022/01/13 04:49:33;;;;;;;3.67;2.78;;;;;;;;;;5072755;28;20027;-45
2022/01/13 04:52:00;;;;;;;4.43;2.92;;;;;;;;;;5072199;28;20044;-45
2022/01/13 04:54:25;;;;;;;4.05;3.13;;;;;;;;;;5072864;28;20361;-45
2022/01/13 04:59:18;;;;;;;5.63;3.30;;;;;;;;;;5071819;28;20059;-45
2022/01/13 05:01:44;;;;;;;4.93;2.97;;;;;;;;;;5067216;28;20029;-45
2022/01/13 05:04:10;;;;;;;5.00;2.90;;;;;;;;;;5071047;28;20025;-44
2022/01/13 05:06:36;;;;;;;4.60;3.38;;;;;;;;;;5072240;28;20086;-45
2022/01/13 05:09:03;;;;;;;4.65;3.28;;;;;;;;;;5071347;28;20519;-45
2022/01/13 05:11:29;;;;;;;4.30;3.22;;;;;;;;;;5072477;28;20456;-48
2022/01/13 05:13:55;;;;;;;3.88;3.17;;;;;;;;;;5054024;28;20030;-55
2022/01/13 05:18:57;;;;;;;5.13;3.28;;;;;;;;;;5072519;28;20042;-44
2022/01/13 05:21:26;;;;;;;4.80;3.40;;;;;;;;;;5072221;28;20070;-45
2022/01/13 05:23:52;;;;;;;3.83;2.75;;;;;;;;;;5064130;28;20021;-45
2022/01/13 05:26:22;;;;;;;4.25;3.00;;;;;;;;;;5060190;28;20017;-46
2022/01/13 05:28:48;;;;;;;3.67;2.83;;;;;;;;;;5054327;28;20111;-45
2022/01/13 05:31:14;;;;;;;5.55;3.42;;;;;;;;;;5070624;28;20484;-44
2022/01/13 05:33:40;;;;;;;5.03;3.58;;;;;;;;;;5072269;28;20036;-45
2022/01/13 05:36:06;;;;;;;4.13;2.92;;;;;;;;;;5071214;28;20779;-44
2022/01/13 05:38:32;;;;;;;3.88;3.20;;;;;;;;;;5071949;28;20052;-46
2022/01/13 05:40:58;;;;;;;5.03;3.47;;;;;;;;;;5071528;28;20138;-53
2022/01/13 05:43:27;;;;;;;3.33;2.85;;;;;;;;;;5072202;28;20042;-44
2022/01/13 05:45:53;;;;;;;3.85;3.03;;;;;;;;;;5071802;28;20043;-46
2022/01/13 05:48:19;;;;;;;4.57;2.80;;;;;;;;;;5071266;28;20043;-44
2022/01/13 05:50:45;;;;;;;3.60;3.05;;;;;;;;;;5071940;28;20033;-44
2022/01/13 05:53:11;;;;;;;4.20;3.45;;;;;;;;;;5071236;28;20040;-46
2022/01/13 05:55:39;;;;;;;3.53;2.85;;;;;;;;;;5065698;28;20062;-45
2022/01/13 05:58:05;;;;;;;4.03;3.35;;;;;;;;;;5050198;28;20108;-45
2022/01/13 06:00:32;;;;;;;4.15;3.38;;;;;;;;;;5061375;28;20112;-45
2022/01/13 06:02:58;;;;;;;4.32;3.25;;;;;;;;;;5071486;28;20032;-54
2022/01/13 06:05:25;;;;;;;3.60;2.80;;;;;;;;;;5071142;28;20025;-44
2022/01/13 06:07:52;;;;;;;4.38;3.22;;;;;;;;;;5071592;28;20119;-45
2022/01/13 06:10:21;;;;;;;3.50;2.88;;;;;;;;;;5070856;28;20027;-45
2022/01/13 06:12:48;;;;;;;4.38;2.90;;;;;;;;;;5071801;28;20361;-44
2022/01/13 06:15:15;;;;;;;4.82;3.28;;;;;;;;;;5070708;28;20021;-44
2022/01/13 06:17:43;;;;;;;2.92;2.47;;;;;;;;;;5071941;28;20082;-46
2022/01/13 06:20:10;;;;;;;4.03;3.15;;;;;;;;;;5071258;28;20111;-45
2022/01/13 06:22:36;;;;;;;4.28;3.10;;;;;;;;;;5071898;28;20074;-45
2022/01/13 06:25:03;;;;;;;4.07;3.10;;;;;;;;;;5052985;28;20036;-45
2022/01/13 06:27:29;;;;;;;4.57;3.15;;;;;;;;;;5051935;28;20025;-44
2022/01/13 06:29:57;;;;;;;5.40;3.20;;;;;;;;;;5053807;28;20060;-48
2022/01/13 06:32:23;;;;;;;4.88;3.50;;;;;;;;;;5069840;28;20028;-46
2022/01/13 06:34:49;;;;;;;4.65;2.90;;;;;;;;;;5071590;28;20063;-45
2022/01/13 06:37:16;;;;;;;5.57;3.22;;;;;;;;;;5070522;28;20068;-44
2022/01/13 06:39:42;;;;;;;3.90;3.08;;;;;;;;;;5071194;28;20375;-45
2022/01/13 06:42:08;;;;;;;7.10;3.40;;;;;;;;;;5070456;28;20454;-44
2022/01/13 06:44:34;;;;;;;4.78;3.10;;;;;;;;;;5071569;28;20029;-44
2022/01/13 06:47:01;;;;;;;5.53;3.08;;;;;;;;;;5070631;28;20016;-53
2022/01/13 06:49:27;;;;;;;4.25;2.97;;;;;;;;;;5067668;28;20036;-44
2022/01/13 06:51:53;;;;;;;5.40;2.97;;;;;;;;;;5051547;28;20038;-46
2022/01/13 06:54:19;;;;;;;4.50;2.97;;;;;;;;;;5049488;28;20024;-48
2022/01/13 06:56:45;;;;;;;11.23;3.28;;;;;;;;;;5050888;28;20060;-48
2022/01/13 06:59:11;;;;;;;7.28;3.67;;;;;;;;;;5050618;28;20065;-49
2022/01/13 07:01:38;;;;;;;8.35;3.30;;;;;;;;;;5061812;28;20016;-49
2022/01/13 07:04:04;;;;;;;6.63;3.05;;;;;;;;;;5070479;28;20035;-44
2022/01/13 07:06:30;;;;;;;5.20;2.88;;;;;;;;;;5071307;28;20040;-44
2022/01/13 07:08:56;;;;;;;8.80;3.63;;;;;;;;;;5067139;28;20029;-45
2022/01/13 07:11:22;;;;;;;4.82;3.50;;;;;;;;;;5070517;28;20462;-45
2022/01/13 07:13:48;;;;;;;8.65;3.70;;;;;;;;;;5074837;28;20127;-45
2022/01/13 07:16:14;;;;;;;7.63;3.70;;;;;;;;;;5073781;28;20036;-44
2022/01/13 07:18:40;;;;;;;6.07;3.25;;;;;;;;;;5072849;28;20039;-44
2022/01/13 07:21:08;;;;;;;6.05;3.15;;;;;;;;;;5073854;28;20028;-45
2022/01/13 07:23:35;;;;;;;6.35;3.80;;;;;;;;;;5068890;28;20021;-46
2022/01/13 07:26:02;;;;;;;7.93;3.35;;;;;;;;;;5054267;28;20040;-56
2022/01/13 07:28:28;;;;;;;6.35;3.22;;;;;;;;;;5054371;28;20082;-46
2022/01/13 07:30:54;;;;;;;5.30;3.25;;;;;;;;;;5054133;28;20052;-47
2022/01/13 07:33:20;;;;;;;6.68;3.15;;;;;;;;;;5067383;28;20028;-45
2022/01/13 07:35:46;;;;;;;5.15;3.75;;;;;;;;;;5073222;28;20016;-44
2022/01/13 07:38:12;;;;;;;4.85;3.33;;;;;;;;;;5072599;28;20048;-45
2022/01/13 07:40:38;;;;;;;6.28;3.67;;;;;;;;;;5074366;28;20413;-46
2022/01/13 07:43:04;;;;;;;5.40;3.35;;;;;;;;;;5073679;28;20056;-53
2022/01/13 07:45:30;;;;;;;6.00;4.00;;;;;;;;;;5054576;28;20021;-49
2022/01/13 07:47:56;;;;;;;6.90;3.78;;;;;;;;;;5052910;28;20013;-44
2022/01/13 07:50:22;;;;;;;4.70;3.30;;;;;;;;;;5055730;28;20378;-46
2022/01/13 07:52:48;;;;;;;6.60;3.35;;;;;;;;;;5065688;28;20021;-46
2022/01/13 07:55:14;;;;;;;7.22;3.25;;;;;;;;;;5053687;28;20017;-49
2022/01/13 07:57:40;;;;;;;6.30;3.97;;;;;;;;;;5066852;28;20120;-50
2022/01/13 08:00:08;;;;;;;6.80;3.60;;;;;;;;;;5060042;28;20024;-51
2022/01/13 08:02:34;;;;;;;8.95;3.00;;;;;;;;;;5053061;28;20052;-51
2022/01/13 08:05:00;;;;;;;4.85;3.15;;;;;;;;;;5056792;28;20462;-50
2022/01/13 08:07:26;;;;;;;5.97;3.50;;;;;;;;;;5058336;28;20136;-51
2022/01/13 08:09:52;;;;;;;9.02;4.20;;;;;;;;;;5062272;28;20037;-52
2022/01/13 08:12:18;;;;;;;4.40;2.75;;;;;;;;;;5063768;28;20021;-51
2022/01/13 08:14:44;;;;;;;7.78;3.53;;;;;;;;;;5044448;28;20033;-49
2022/01/13 08:17:19;;;;;;;7.57;3.95;;;;;;;;;;5059840;28;20107;-49
2022/01/13 08:19:45;;;;;;;8.05;3.53;;;;;;;;;;5053545;28;20036;-51
2022/01/13 08:22:11;;;;;;;5.00;3.40;;;;;;;;;;5034483;28;20031;-51
2022/01/13 08:24:37;;;;;;;6.47;3.65;;;;;;;;;;5056310;28;20049;-50
2022/01/13 08:27:03;;;;;;;4.47;3.65;;;;;;;;;;5060521;28;20059;-61
2022/01/13 08:29:29;;;;;;;5.60;3.50;;;;;;;;;;5066239;28;20025;-48
2022/01/13 08:31:55;;;;;;;5.50;3.17;;;;;;;;;;5054020;28;20037;-56
2022/01/13 08:34:22;;;;;;;7.32;2.90;;;;;;;;;;5052000;28;20103;-48
2022/01/13 08:36:48;;;;;;;5.13;3.10;;;;;;;;;;5052958;28;20017;-48
2022/01/13 08:39:14;;;;;;;7.38;3.83;;;;;;;;;;5062601;28;20054;-51
2022/01/13 08:41:41;;;;;;;3.88;3.08;;;;;;;;;;5071615;28;20665;-51
2022/01/13 08:44:07;;;;;;;4.63;3.33;;;;;;;;;;5064099;28;20489;-48
2022/01/13 08:46:33;;;;;;;4.22;2.80;;;;;;;;;;5072969;28;20025;-47
2022/01/13 08:48:59;;;;;;;5.25;3.08;;;;;;;;;;5070984;28;20020;-50
2022/01/13 08:51:25;;;;;;;4.00;3.00;;;;;;;;;;5052129;28;20029;-49
2022/01/13 08:53:51;;;;;;;3.42;2.70;;;;;;;;;;5052669;28;20037;-50
2022/01/13 08:56:17;;;;;;;4.72;2.90;;;;;;;;;;5065286;28;20016;-51
2022/01/13 08:58:45;;;;;;;4.03;2.60;;;;;;;;;;5059829;28;20039;-50
2022/01/13 09:01:11;;;;;;;4.95;2.65;;;;;;;;;;5055121;28;20033;-50
2022/01/13 09:03:37;;;;;;;4.05;2.72;;;;;;;;;;5055068;28;20024;-48
2022/01/13 09:06:04;;;;;;;5.13;2.58;;;;;;;;;;5058968;28;20028;-57
2022/01/13 09:08:30;;;;;;;5.25;2.85;;;;;;;;;;5071622;28;20045;-50
2022/01/13 09:10:56;;;;;;;4.68;2.88;;;;;;;;;;5072279;28;20378;-49
2022/01/13 09:13:23;;;;;;;3.97;2.90;;;;;;;;;;5063577;28;20071;-48
2022/01/13 09:15:58;;;;;;;4.32;2.75;;;;;;;;;;5064042;28;20036;-50
2022/01/13 09:18:47;;;;;;;3.50;2.33;;;;;;;;;;5071235;28;20107;-49
2022/01/13 09:21:14;;;;;;;5.88;3.30;;;;;;;;;;5071483;28;20501;-51
2022/01/13 09:23:40;;;;;;;3.05;2.50;;;;;;;;;;5066072;28;20024;-50
2022/01/13 09:26:06;;;;;;;7.80;3.10;;;;;;;;;;5055153;28;20074;-60
2022/01/13 09:28:33;;;;;;;5.70;2.20;;;;;;;;;;5063252;28;20096;-49
2022/01/13 09:30:59;;;;;;;4.00;2.85;;;;;;;;;;5063091;28;20040;-48
2022/01/13 09:33:25;;;;;;;5.50;3.15;;;;;;;;;;5050827;28;20044;-49
2022/01/13 09:35:51;;;;;;;3.95;2.83;;;;;;;;;;5058646;28;20381;-51
2022/01/13 09:38:17;;;;;;;4.28;2.70;;;;;;;;;;5068586;28;20044;-51
2022/01/13 09:40:45;;;;;;;3.22;2.58;;;;;;;;;;5069583;28;20039;-50
2022/01/13 09:43:11;;;;;;;4.05;2.95;;;;;;;;;;5070991;28;20474;-48
2022/01/13 09:45:37;;;;;;;3.80;2.70;;;;;;;;;;5065764;28;20136;-49
2022/01/13 09:48:04;;;;;;;4.63;2.90;;;;;;;;;;5056987;28;20401;-49
2022/01/13 09:50:30;;;;;;;3.53;2.20;;;;;;;;;;5065192;28;20052;-49
2022/01/13 09:52:56;;;;;;;4.25;2.95;;;;;;;;;;5052840;28;20032;-53
2022/01/13 09:55:22;;;;;;;4.68;2.70;;;;;;;;;;5051104;28;20021;-50
2022/01/13 09:57:49;;;;;;;3.28;2.45;;;;;;;;;;5062970;28;20134;-56
2022/01/13 10:00:21;;;;;;;3.35;2.45;;;;;;;;;;5068064;28;20054;-53
2022/01/13 10:02:47;;;;;;;4.75;3.15;;;;;;;;;;5042612;28;20473;-51
2022/01/13 10:05:16;;;;;;;5.60;3.90;;;;;;;;;;5068033;28;20029;-49
2022/01/13 10:07:43;;;;;;;4.72;3.10;;;;;;;;;;5070183;28;20465;-49
2022/01/13 10:10:16;;;;;;;4.30;2.60;;;;;;;;;;5071090;28;20039;-60
2022/01/13 10:12:44;;;;;;;2.88;2.13;;;;;;;;;;5069538;28;20082;-51
2022/01/13 10:17:47;;;;;;;3.60;2.22;;;;;;;;;;5064698;28;20032;-50
2022/01/13 10:20:13;;;;;;;4.25;3.08;;;;;;;;;;5070610;28;20610;-50
2022/01/13 10:22:39;;;;;;;3.10;2.30;;;;;;;;;;5070826;28;20064;-48
2022/01/13 10:25:05;;;;;;;3.60;2.47;;;;;;;;;;5071543;28;20031;-48
2022/01/13 10:27:33;;;;;;;3.25;2.55;;;;;;;;;;5058731;28;20033;-52
2022/01/13 10:30:01;;;;;;;3.03;2.17;;;;;;;;;;5069985;28;20043;-51
2022/01/13 10:32:34;;;;;;;3.80;2.80;;;;;;;;;;5069965;28;20047;-51
2022/01/13 10:35:02;;;;;;;4.80;2.47;;;;;;;;;;5071335;28;20056;-51
2022/01/13 10:37:30;;;;;;;4.35;2.83;;;;;;;;;;5051878;28;20135;-49
2022/01/13 10:39:59;;;;;;;3.85;3.05;;;;;;;;;;5089281;28;20028;-51
2022/01/13 10:45:05;;;;;;;6.28;3.33;;;;;;;;;;5087549;28;20029;-50
2022/01/13 10:47:31;;;;;;;3.25;2.60;;;;;;;;;;5072353;28;20753;-50
2022/01/13 10:50:01;;;;;;;4.70;3.35;;;;;;;;;;5079696;28;20027;-50
2022/01/13 10:52:28;;;;;;;4.03;2.70;;;;;;;;;;5084807;28;20415;-54
2022/01/13 10:54:55;;;;;;;5.20;3.10;;;;;;;;;;5095788;28;20069;-48
2022/01/13 10:57:23;;;;;;;5.68;2.53;;;;;;;;;;5084686;28;20099;-51
2022/01/13 10:59:49;;;;;;;3.35;2.65;;;;;;;;;;5075061;28;20021;-49
2022/01/13 11:02:15;;;;;;;3.47;2.40;;;;;;;;;;5073782;28;20424;-52
2022/01/13 11:04:41;;;;;;;3.83;3.00;;;;;;;;;;5074842;28;20031;-49
2022/01/13 11:07:15;;;;;;;4.50;2.25;;;;;;;;;;5094443;28;20024;-51
2022/01/13 11:09:43;;;;;;;5.72;3.33;;;;;;;;;;5095067;28;20040;-49
2022/01/13 11:12:14;;;;;;;3.83;2.65;;;;;;;;;;5093008;28;20032;-59
2022/01/13 11:14:45;;;;;;;3.22;2.42;;;;;;;;;;5092741;28;20488;-52
2022/01/13 11:17:11;;;;;;;4.70;3.10;;;;;;;;;;5089427;28;20110;-48
2022/01/13 11:19:41;;;;;;;4.20;2.97;;;;;;;;;;5095651;28;20362;-47
2022/01/13 11:22:09;;;;;;;3.20;2.50;;;;;;;;;;5073730;28;20473;-51
2022/01/13 11:24:35;;;;;;;4.10;2.58;;;;;;;;;;5082383;28;20074;-49
2022/01/13 11:27:02;;;;;;;4.40;2.60;;;;;;;;;;5081582;28;20066;-50
2022/01/13 11:29:29;;;;;;;3.47;2.72;;;;;;;;;;5077186;28;20044;-50
2022/01/13 11:31:57;;;;;;;3.10;2.33;;;;;;;;;;5088702;28;20034;-51
2022/01/13 11:34:23;;;;;;;3.55;2.42;;;;;;;;;;5088212;28;20024;-47
2022/01/13 11:36:50;;;;;;;3.70;2.65;;;;;;;;;;5071807;28;20031;-49
2022/01/13 11:39:16;;;;;;;4.18;2.80;;;;;;;;;;5070536;28;20032;-48
2022/01/13 11:42:02;;;;;;;6.28;2.30;;;;;;;;;;5074442;28;20028;-48
2022/01/13 11:44:29;;;;;;;2.88;2.28;;;;;;;;;;5072641;28;20021;-48
2022/01/13 11:46:55;;;;;;;4.38;2.42;;;;;;;;;;5072463;28;20056;-48
2022/01/13 11:49:26;;;;;;;6.35;2.53;;;;;;;;;;5073201;28;20058;-53
2022/01/13 11:52:15;;;;;;;2.97;2.58;;;;;;;;;;5073494;28;20032;-48
2022/01/13 11:54:42;;;;;;;3.50;2.42;;;;;;;;;;5074043;28;20020;-52
2022/01/13 11:57:09;;;;;;;4.53;2.90;;;;;;;;;;5068470;28;20032;-51
2022/01/13 11:59:35;;;;;;;3.10;2.35;;;;;;;;;;5056540;28;20043;-47
2022/01/13 12:02:20;;;;;;;3.08;2.15;;;;;;;;;;5053311;28;20380;-52
2022/01/13 12:05:01;;;;;;;3.40;2.55;;;;;;;;;;5053653;28;20079;-48
2022/01/13 12:07:43;;;;;;;4.75;3.17;;;;;;;;;;5052879;28;20025;-51
2022/01/13 12:10:09;;;;;;;3.22;2.40;;;;;;;;;;5053578;28;20029;-51
2022/01/13 12:12:37;;;;;;;4.10;2.40;;;;;;;;;;5055672;28;20036;-51
2022/01/13 12:15:23;;;;;;;3.42;2.42;;;;;;;;;;5064015;28;20028;-55
2022/01/13 12:18:01;;;;;;;3.45;2.53;;;;;;;;;;5057780;28;20481;-53
2022/01/13 12:20:40;;;;;;;2.63;2.42;;;;;;;;;;5071219;28;20043;-51
2022/01/13 12:23:24;;;;;;;3.40;2.90;;;;;;;;;;5071479;28;20038;-51
2022/01/13 12:25:50;;;;;;;4.45;2.40;;;;;;;;;;5055940;28;20060;-49
2022/01/13 12:28:18;;;;;;;3.65;2.55;;;;;;;;;;5047592;28;20489;-51
2022/01/13 12:30:44;;;;;;;3.72;2.28;;;;;;;;;;5072871;28;20028;-51
2022/01/13 12:33:10;;;;;;;4.30;2.30;;;;;;;;;;5055716;28;20033;-51
2022/01/13 12:35:45;;;;;;;3.40;2.20;;;;;;;;;;5072345;28;20024;-48
2022/01/13 12:38:11;;;;;;;2.58;2.10;;;;;;;;;;5073155;28;20060;-49
2022/01/13 12:40:46;;;;;;;2.80;2.25;;;;;;;;;;5071428;28;20021;-48
2022/01/13 12:43:21;;;;;;;3.28;2.40;;;;;;;;;;5073223;28;20343;-52
2022/01/13 12:45:47;;;;;;;2.97;2.10;;;;;;;;;;5072714;28;20568;-49
2022/01/13 12:48:13;;;;;;;3.30;2.30;;;;;;;;;;5055151;28;20473;-54
2022/01/13 12:50:40;;;;;;;3.55;2.42;;;;;;;;;;5066015;28;20033;-48
2022/01/13 12:53:11;;;;;;;3.15;2.47;;;;;;;;;;5052901;28;20041;-49
2022/01/13 12:55:38;;;;;;;3.63;1.88;;;;;;;;;;5051910;28;20090;-49
2022/01/13 12:58:05;;;;;;;2.70;2.00;;;;;;;;;;5068594;28;20094;-49
2022/01/13 13:00:32;;;;;;;2.85;2.28;;;;;;;;;;5070193;28;20365;-48
2022/01/13 13:03:05;;;;;;;3.83;2.22;;;;;;;;;;5064283;28;20095;-48
2022/01/13 13:05:33;;;;;;;4.03;2.45;;;;;;;;;;5051891;28;20091;-51
2022/01/13 13:07:59;;;;;;;3.95;2.70;;;;;;;;;;5053756;28;20037;-48
2022/01/13 13:10:25;;;;;;;4.13;2.22;;;;;;;;;;5065063;28;20032;-52
2022/01/13 13:12:53;;;;;;;3.15;2.28;;;;;;;;;;5071363;28;20146;-49
2022/01/13 13:17:49;;;;;;;2.88;2.10;;;;;;;;;;5059970;28;20041;-49
2022/01/13 13:20:24;;;;;;;3.67;2.42;;;;;;;;;;5057115;28;20025;-60
2022/01/13 13:22:51;;;;;;;2.53;2.10;;;;;;;;;;5062131;28;20385;-50
2022/01/13 13:25:27;;;;;;;3.55;2.53;;;;;;;;;;5056527;28;20025;-61
2022/01/13 13:27:53;;;;;;;3.10;2.40;;;;;;;;;;5066102;28;20028;-56
2022/01/13 13:30:19;;;;;;;2.88;2.10;;;;;;;;;;5063949;28;20108;-59
2022/01/13 13:32:49;;;;;;;4.13;2.22;;;;;;;;;;5067971;28;20057;-52
2022/01/13 13:35:15;;;;;;;3.65;2.50;;;;;;;;;;5056805;28;20025;-56
2022/01/13 13:37:48;;;;;;;3.63;2.25;;;;;;;;;;5071237;28;20086;-50
2022/01/13 13:40:24;;;;;;;2.53;1.88;;;;;;;;;;5071764;28;20036;-49
2022/01/13 13:43:00;;;;;;;3.33;2.10;;;;;;;;;;5054057;28;20107;-50
2022/01/13 13:45:26;;;;;;;3.40;2.22;;;;;;;;;;5063011;28;20021;-50
2022/01/13 13:47:58;;;;;;;4.57;2.58;;;;;;;;;;5052597;28;20052;-53
2022/01/13 13:50:25;;;;;;;3.78;2.40;;;;;;;;;;5063809;28;20039;-52
2022/01/13 13:53:07;;;;;;;2.55;2.05;;;;;;;;;;5041748;28;20033;-50
2022/01/13 13:55:34;;;;;;;2.85;2.25;;;;;;;;;;5052324;28;20021;-50
2022/01/13 13:58:00;;;;;;;6.95;2.20;;;;;;;;;;5062921;28;20021;-50
2022/01/13 14:00:27;;;;;;;5.15;3.40;;;;;;;;;;5051307;28;20025;-48
2022/01/13 14:02:54;;;;;;;3.17;2.33;;;;;;;;;;5044816;28;20117;-48
2022/01/13 14:05:24;;;;;;;3.03;2.08;;;;;;;;;;5066861;28;20142;-61
2022/01/13 14:07:50;;;;;;;2.42;2.08;;;;;;;;;;5050889;28;20021;-51
2022/01/13 14:10:17;;;;;;;3.40;2.10;;;;;;;;;;5051197;28;20029;-58
2022/01/13 14:12:45;;;;;;;2.97;2.45;;;;;;;;;;5065998;28;20031;-51
2022/01/13 14:15:13;;;;;;;3.65;2.00;;;;;;;;;;5059555;28;20037;-47
2022/01/13 14:17:40;;;;;;;3.95;2.42;;;;;;;;;;5050619;28;20024;-47
2022/01/13 14:20:07;;;;;;;3.53;2.30;;;;;;;;;;5033989;28;20073;-49
2022/01/13 14:22:33;;;;;;;3.20;2.08;;;;;;;;;;5052952;28;20025;-50
2022/01/13 14:24:59;;;;;;;3.58;2.53;;;;;;;;;;5070614;28;20029;-49
2022/01/13 14:27:29;;;;;;;3.63;2.03;;;;;;;;;;5072161;28;20493;-50
2022/01/13 14:29:55;;;;;;;3.17;1.95;;;;;;;;;;5075160;28;20032;-48
2022/01/13 14:32:23;;;;;;;4.05;2.72;;;;;;;;;;5057164;28;20059;-59
2022/01/13 14:34:53;;;;;;;2.63;2.25;;;;;;;;;;5055659;28;20052;-50
2022/01/13 14:37:20;;;;;;;3.13;2.20;;;;;;;;;;5054542;28;20052;-59
2022/01/13 14:40:04;;;;;;;2.95;2.20;;;;;;;;;;5054954;28;20482;-49
2022/01/13 14:42:30;;;;;;;2.60;2.10;;;;;;;;;;5054841;28;20493;-49
2022/01/13 14:45:15;;;;;;;5.05;2.28;;;;;;;;;;5062324;28;20024;-47
2022/01/13 14:47:41;;;;;;;2.55;2.10;;;;;;;;;;5058073;28;20055;-49
2022/01/13 14:50:07;;;;;;;3.80;2.83;;;;;;;;;;5057962;28;20060;-49
2022/01/13 14:52:33;;;;;;;3.65;2.60;;;;;;;;;;5056495;28;20062;-49
2022/01/13 14:54:59;;;;;;;4.78;2.25;;;;;;;;;;5075217;28;20024;-49
2022/01/13 14:57:25;;;;;;;3.50;2.45;;;;;;;;;;5065878;28;20028;-47
2022/01/13 14:59:51;;;;;;;2.55;2.00;;;;;;;;;;5054150;28;20470;-51
2022/01/13 15:02:18;;;;;;;3.45;2.40;;;;;;;;;;5063322;28;20140;-50
2022/01/13 15:04:44;;;;;;;3.88;2.35;;;;;;;;;;5059245;28;20106;-49
2022/01/13 15:07:10;;;;;;;2.72;1.83;;;;;;;;;;5061758;28;20059;-48
2022/01/13 15:09:36;;;;;;;2.58;2.17;;;;;;;;;;5053586;28;20040;-47
2022/01/13 15:12:03;;;;;;;4.47;2.90;;;;;;;;;;5054779;28;20374;-51
2022/01/13 15:14:29;;;;;;;3.67;2.25;;;;;;;;;;5053937;28;20025;-49
2022/01/13 15:16:55;;;;;;;3.22;1.98;;;;;;;;;;5054818;28;20413;-48